createdAt,value
2019-01-15T00:00:06.375Z,2.23
2019-01-15T00:02:34.830Z,2.20
2019-01-15T00:05:04.307Z,2.00
2019-01-15T00:07:32.679Z,2.50
2019-01-15T00:10:01.085Z,1.97
2019-01-15T00:12:29.423Z,2.33
2019-01-15T00:14:57.774Z,2.20
2019-01-15T00:17:26.124Z,2.40
2019-01-15T00:19:54.510Z,2.20
2019-01-15T00:22:22.959Z,2.23
2019-01-15T00:24:51.431Z,2.33
2019-01-15T00:27:19.873Z,2.10
2019-01-15T00:29:48.265Z,2.30
2019-01-15T00:32:16.642Z,3.33
2019-01-15T00:34:45.040Z,2.37
2019-01-15T00:37:13.609Z,2.73
2019-01-15T00:39:42.015Z,2.40
2019-01-15T00:42:15.266Z,2.40
2019-01-15T00:44:40.436Z,2.10
2019-01-15T00:47:08.974Z,2.07
2019-01-15T00:49:37.376Z,2.47
2019-01-15T00:52:05.759Z,2.23
2019-01-15T00:54:34.142Z,2.80
2019-01-15T00:57:02.424Z,2.00
2019-01-15T00:59:30.761Z,2.10
2019-01-15T01:01:59.130Z,2.23
2019-01-15T01:04:27.529Z,1.93
2019-01-15T01:06:55.902Z,2.10
2019-01-15T01:09:24.287Z,2.00
2019-01-15T01:11:52.897Z,2.13
2019-01-15T01:14:21.303Z,2.40
2019-01-15T01:16:49.646Z,2.87
2019-01-15T01:19:17.984Z,2.30
2019-01-15T01:21:46.362Z,2.10
2019-01-15T01:24:14.739Z,1.97
2019-01-15T01:26:43.106Z,1.63
2019-01-15T01:29:11.414Z,2.47
2019-01-15T01:31:39.845Z,2.43
2019-01-15T01:34:08.193Z,2.23
2019-01-15T01:36:36.574Z,2.30
2019-01-15T01:39:07.476Z,2.63
2019-01-15T01:41:35.906Z,1.80
2019-01-15T01:44:04.312Z,2.43
2019-01-15T01:46:32.688Z,2.70
2019-01-15T01:49:01.066Z,2.30
2019-01-15T01:51:29.353Z,1.90
2019-01-15T01:53:57.666Z,2.20
2019-01-15T01:56:26.020Z,2.03
2019-01-15T01:58:54.548Z,2.37
2019-01-15T02:01:22.895Z,2.47
2019-01-15T02:03:51.225Z,2.03
2019-01-15T02:06:19.598Z,1.87
2019-01-15T02:08:48.011Z,2.40
2019-01-15T02:11:16.396Z,2.20
2019-01-15T02:13:44.936Z,1.90
2019-01-15T02:16:13.333Z,1.60
2019-01-15T02:18:41.730Z,1.87
2019-01-15T02:21:10.130Z,2.53
2019-01-15T02:23:38.482Z,1.83
2019-01-15T02:26:06.790Z,1.93
2019-01-15T02:28:35.095Z,2.00
2019-01-15T02:31:03.475Z,2.50
2019-01-15T02:33:31.761Z,2.73
2019-01-15T02:36:00.171Z,2.67
2019-01-15T02:38:28.582Z,3.03
2019-01-15T02:40:56.980Z,2.20
2019-01-15T02:43:25.343Z,2.83
2019-01-15T02:45:53.745Z,2.13
2019-01-15T02:48:22.095Z,1.90
2019-01-15T02:50:50.785Z,2.43
2019-01-15T02:53:19.438Z,2.53
2019-01-15T02:55:47.849Z,2.70
2019-01-15T02:58:16.202Z,2.10
2019-01-15T03:00:44.566Z,1.97
2019-01-15T03:03:12.874Z,2.30
2019-01-15T03:05:41.244Z,2.50
2019-01-15T03:08:09.677Z,2.43
2019-01-15T03:10:38.037Z,2.63
2019-01-15T03:13:06.328Z,3.00
2019-01-15T03:15:34.756Z,2.20
2019-01-15T03:18:03.169Z,2.40
2019-01-15T03:20:31.542Z,2.57
2019-01-15T03:22:59.828Z,2.03
2019-01-15T03:25:28.230Z,2.13
2019-01-15T03:27:56.578Z,3.37
2019-01-15T03:30:24.943Z,2.40
2019-01-15T03:32:53.312Z,2.07
2019-01-15T03:35:21.708Z,2.50
2019-01-15T03:37:50.092Z,2.40
2019-01-15T03:40:23.586Z,2.60
2019-01-15T03:42:51.952Z,2.47
2019-01-15T03:45:20.344Z,2.47
2019-01-15T03:47:48.690Z,2.70
2019-01-15T03:50:17.693Z,2.33
2019-01-15T03:52:46.065Z,2.40
2019-01-15T03:55:15.104Z,2.40
2019-01-15T03:57:43.582Z,2.57
2019-01-15T04:00:17.770Z,2.30
2019-01-15T04:02:46.340Z,2.17
2019-01-15T04:05:16.435Z,2.27
2019-01-15T04:07:45.448Z,2.10
2019-01-15T04:10:13.854Z,2.50
2019-01-15T04:12:43.631Z,2.00
2019-01-15T04:15:13.316Z,2.50
2019-01-15T04:17:41.658Z,2.90
2019-01-15T04:20:12.927Z,2.67
2019-01-15T04:22:41.297Z,2.10
2019-01-15T04:25:10.301Z,2.37
2019-01-15T04:27:38.734Z,2.37
2019-01-15T04:30:10.308Z,2.30
2019-01-15T04:32:38.679Z,2.60
2019-01-15T04:35:08.846Z,2.67
2019-01-15T04:37:37.239Z,2.50
2019-01-15T04:40:11.665Z,3.40
2019-01-15T04:42:40.062Z,2.40
2019-01-15T04:45:11.537Z,2.70
2019-01-15T04:47:39.911Z,2.27
2019-01-15T04:50:09.558Z,2.70
2019-01-15T04:52:38.903Z,2.33
2019-01-15T04:55:09.673Z,2.30
2019-01-15T04:57:38.070Z,2.53
2019-01-15T05:00:12.506Z,2.60
2019-01-15T05:02:41.219Z,2.93
2019-01-15T05:05:09.582Z,2.17
2019-01-15T05:07:37.976Z,3.03
2019-01-15T05:10:09.681Z,2.80
2019-01-15T05:12:38.074Z,3.20
2019-01-15T05:15:09.309Z,3.33
2019-01-15T05:17:37.690Z,3.03
2019-01-15T05:20:09.044Z,3.80
2019-01-15T05:22:37.420Z,3.20
2019-01-15T05:25:09.013Z,2.90
2019-01-15T05:27:37.395Z,2.80
2019-01-15T05:30:09.115Z,3.13
2019-01-15T05:32:37.479Z,3.13
2019-01-15T05:35:06.754Z,3.20
2019-01-15T05:37:35.141Z,2.70
2019-01-15T05:40:04.725Z,2.80
2019-01-15T05:42:33.094Z,2.70
2019-01-15T05:45:01.880Z,3.13
2019-01-15T05:47:30.720Z,3.20
2019-01-15T05:49:59.329Z,2.70
2019-01-15T05:52:27.711Z,3.13
2019-01-15T05:54:56.124Z,3.27
2019-01-15T05:57:24.507Z,3.10
2019-01-15T05:59:52.868Z,2.80
2019-01-15T06:02:21.235Z,3.03
2019-01-15T06:04:49.604Z,3.10
2019-01-15T06:07:17.985Z,3.50
2019-01-15T06:09:46.323Z,3.50
2019-01-15T06:12:14.627Z,2.87
2019-01-15T06:14:42.993Z,3.20
2019-01-15T06:17:11.387Z,2.90
2019-01-15T06:19:39.747Z,3.83
2019-01-15T06:22:08.128Z,2.83
2019-01-15T06:24:36.784Z,2.87
2019-01-15T06:27:05.324Z,3.20
2019-01-15T06:29:33.738Z,3.13
2019-01-15T06:32:02.115Z,3.03
2019-01-15T06:34:30.524Z,3.50
2019-01-15T06:36:58.950Z,3.30
2019-01-15T06:39:27.294Z,3.90
2019-01-15T06:41:55.644Z,3.73
2019-01-15T06:44:24.045Z,3.90
2019-01-15T06:46:52.477Z,3.17
2019-01-15T06:49:20.848Z,3.30
2019-01-15T06:51:49.152Z,3.53
2019-01-15T06:54:17.553Z,2.70
2019-01-15T06:56:45.928Z,2.73
2019-01-15T06:59:14.323Z,3.20
2019-01-15T07:01:42.696Z,3.40
2019-01-15T07:04:11.067Z,3.50
2019-01-15T07:06:39.472Z,3.00
2019-01-15T07:09:08.790Z,3.60
2019-01-15T07:11:37.176Z,2.87
2019-01-15T07:14:05.587Z,3.23
2019-01-15T07:16:34.138Z,2.87
2019-01-15T07:19:02.518Z,3.23
2019-01-15T07:21:31.152Z,3.43
2019-01-15T07:23:59.612Z,3.33
2019-01-15T07:26:28.006Z,3.00
2019-01-15T07:28:56.307Z,3.40
2019-01-15T07:31:24.694Z,2.97
2019-01-15T07:33:53.114Z,3.67
2019-01-15T07:36:21.474Z,2.97
2019-01-15T07:38:49.831Z,3.57
2019-01-15T07:41:18.231Z,3.70
2019-01-15T07:43:46.604Z,3.50
2019-01-15T07:46:15.004Z,3.27
2019-01-15T07:48:43.357Z,2.97
2019-01-15T07:51:11.688Z,3.40
2019-01-15T07:53:40.060Z,3.03
2019-01-15T07:56:08.445Z,3.00
2019-01-15T07:58:36.810Z,3.03
2019-01-15T08:01:05.118Z,2.97
2019-01-15T08:03:33.500Z,2.97
2019-01-15T08:06:01.881Z,3.77
2019-01-15T08:08:30.202Z,3.27
2019-01-15T08:10:58.626Z,3.17
2019-01-15T08:13:27.030Z,3.40
2019-01-15T08:15:56.458Z,3.50
2019-01-15T08:18:25.040Z,3.23
2019-01-15T08:20:53.516Z,3.33
2019-01-15T08:23:21.933Z,2.83
2019-01-15T08:25:50.382Z,2.90
2019-01-15T08:28:18.800Z,2.20
2019-01-15T08:30:47.108Z,2.63
2019-01-15T08:33:15.504Z,3.37
2019-01-15T08:35:43.850Z,3.43
2019-01-15T08:38:12.253Z,2.70
2019-01-15T08:40:40.622Z,3.10
2019-01-15T08:43:09.032Z,2.40
2019-01-15T08:45:37.370Z,2.43
2019-01-15T08:48:10.144Z,2.73
2019-01-15T08:50:38.436Z,2.57
2019-01-15T08:53:06.756Z,2.50
2019-01-15T08:55:35.207Z,2.47
2019-01-15T08:58:03.599Z,2.37
2019-01-15T09:00:31.995Z,2.80
2019-01-15T09:03:00.352Z,2.90
2019-01-15T09:05:28.746Z,3.27
2019-01-15T09:07:57.119Z,3.20
2019-01-15T09:10:25.518Z,3.37
2019-01-15T09:12:53.901Z,2.23
2019-01-15T09:15:22.782Z,2.33
2019-01-15T09:17:51.332Z,2.57
2019-01-15T09:20:20.976Z,2.40
2019-01-15T09:22:49.439Z,2.50
2019-01-15T09:25:17.859Z,2.63
2019-01-15T09:27:46.258Z,2.50
2019-01-15T09:30:17.283Z,2.77
2019-01-15T09:32:45.769Z,2.27
2019-01-15T09:35:14.176Z,2.97
2019-01-15T09:37:43.311Z,2.50
2019-01-15T09:40:17.351Z,2.50
2019-01-15T09:42:45.761Z,2.40
2019-01-15T09:45:16.344Z,2.87
2019-01-15T09:47:52.329Z,2.27
2019-01-15T09:50:20.699Z,2.53
2019-01-15T09:52:49.461Z,2.10
2019-01-15T09:55:17.877Z,2.70
2019-01-15T09:57:46.334Z,2.20
2019-01-15T10:00:19.026Z,2.57
2019-01-15T10:02:47.393Z,2.40
2019-01-15T10:05:15.809Z,3.17
2019-01-15T10:07:44.172Z,2.83
2019-01-15T10:10:14.659Z,2.33
2019-01-15T10:12:42.970Z,2.47
2019-01-15T10:15:16.418Z,2.40
2019-01-15T10:17:44.812Z,2.40
2019-01-15T10:20:14.765Z,2.27
2019-01-15T10:22:43.375Z,2.63
2019-01-15T10:25:13.369Z,2.80
2019-01-15T10:27:42.323Z,2.50
2019-01-15T10:30:27.494Z,2.57
2019-01-15T10:32:59.124Z,2.23
2019-01-15T10:35:30.812Z,2.43
2019-01-15T10:37:59.156Z,2.60
2019-01-15T10:40:27.571Z,2.67
2019-01-15T10:42:55.955Z,2.70
2019-01-15T10:45:24.391Z,2.60
2019-01-15T10:47:52.775Z,2.47
2019-01-15T10:50:21.125Z,2.70
2019-01-15T10:52:49.509Z,2.93
2019-01-15T10:55:17.915Z,2.60
2019-01-15T10:57:46.268Z,2.80
2019-01-15T11:00:14.640Z,2.93
2019-01-15T11:03:02.457Z,2.60
2019-01-15T11:05:30.832Z,2.60
2019-01-15T11:07:59.194Z,2.80
2019-01-15T11:10:27.513Z,3.07
2019-01-15T11:12:55.865Z,2.70
2019-01-15T11:15:24.264Z,3.57
2019-01-15T11:17:52.710Z,3.23
2019-01-15T11:20:24.036Z,2.70
2019-01-15T11:22:52.417Z,2.57
2019-01-15T11:25:20.809Z,2.70
2019-01-15T11:27:49.198Z,3.30
2019-01-15T11:30:17.571Z,3.30
2019-01-15T11:32:45.907Z,2.50
2019-01-15T11:35:14.466Z,2.90
2019-01-15T11:37:42.918Z,2.70
2019-01-15T11:40:16.551Z,2.60
2019-01-15T11:42:44.842Z,2.93
2019-01-15T11:45:15.614Z,2.60
2019-01-15T11:47:43.983Z,2.70
2019-01-15T11:50:18.219Z,2.80
2019-01-15T11:52:46.570Z,2.53
2019-01-15T11:55:14.918Z,3.27
2019-01-15T11:57:43.297Z,2.60
2019-01-15T12:00:38.327Z,2.93
2019-01-15T12:03:08.350Z,3.07
2019-01-15T12:05:54.568Z,2.93
2019-01-15T12:08:33.499Z,3.23
2019-01-15T12:11:06.481Z,3.30
2019-01-15T12:13:52.813Z,2.93
2019-01-15T12:16:39.954Z,2.90
2019-01-15T12:19:09.946Z,2.70
2019-01-15T12:21:39.954Z,3.60
2019-01-15T12:24:12.780Z,2.73
2019-01-15T12:26:42.882Z,2.90
2019-01-15T12:29:12.872Z,3.17
2019-01-15T12:31:58.121Z,3.20
2019-01-15T12:34:31.108Z,2.50
2019-01-15T12:37:07.206Z,3.33
2019-01-15T12:39:53.631Z,2.80
2019-01-15T12:42:29.748Z,3.07
2019-01-15T12:45:18.422Z,3.40
2019-01-15T12:48:05.755Z,3.00
2019-01-15T12:50:44.784Z,3.13
2019-01-15T12:53:20.390Z,3.30
2019-01-15T12:55:56.174Z,2.83
2019-01-15T12:58:35.121Z,3.33
2019-01-15T13:01:11.038Z,3.23
2019-01-15T13:03:57.461Z,3.23
2019-01-15T13:06:33.452Z,3.23
2019-01-15T13:09:12.404Z,2.90
2019-01-15T13:11:58.376Z,2.73
2019-01-15T13:14:34.667Z,2.80
2019-01-15T13:17:07.395Z,2.90
2019-01-15T13:19:37.466Z,3.63
2019-01-15T13:22:07.423Z,3.13
2019-01-15T13:24:40.307Z,3.77
2019-01-15T13:27:19.208Z,4.13
2019-01-15T13:29:49.241Z,3.50
2019-01-15T13:32:25.317Z,3.90
2019-01-15T13:34:58.297Z,3.63
2019-01-15T13:37:34.235Z,4.20
2019-01-15T13:40:20.454Z,3.57
2019-01-15T13:43:07.149Z,3.97
2019-01-15T13:45:41.696Z,3.37
2019-01-15T13:48:08.872Z,4.40
2019-01-15T13:50:38.883Z,4.37
2019-01-15T13:53:25.371Z,3.90
2019-01-15T13:56:10.762Z,4.53
2019-01-15T13:58:43.811Z,3.80
2019-01-15T14:01:30.241Z,3.83
2019-01-15T14:04:06.178Z,3.77
2019-01-15T14:06:39.219Z,3.87
2019-01-15T14:09:13.746Z,3.70
2019-01-15T14:11:49.669Z,3.60
2019-01-15T14:14:31.763Z,3.83
2019-01-15T14:17:01.790Z,3.60
2019-01-15T14:19:48.283Z,4.47
2019-01-15T14:22:36.793Z,4.17
2019-01-15T14:25:09.597Z,3.47
2019-01-15T14:27:48.823Z,4.00
2019-01-15T14:30:31.568Z,3.63
2019-01-15T14:33:04.274Z,3.80
2019-01-15T14:35:50.903Z,3.97
2019-01-15T14:38:33.101Z,3.80
2019-01-15T14:41:03.159Z,4.00
2019-01-15T14:43:33.171Z,4.27
2019-01-15T14:46:21.425Z,4.20
2019-01-15T14:49:07.505Z,4.77
2019-01-15T14:51:43.455Z,4.13
2019-01-15T14:54:25.706Z,4.27
2019-01-15T14:57:10.779Z,3.97
2019-01-15T14:59:47.036Z,4.10
2019-01-15T15:02:32.109Z,4.67
2019-01-15T15:05:20.090Z,4.60
2019-01-15T15:07:56.223Z,4.27
2019-01-15T15:10:35.031Z,4.73
2019-01-15T15:13:13.818Z,4.83
2019-01-15T15:16:03.596Z,5.20
2019-01-15T15:18:33.464Z,4.40
2019-01-15T15:21:03.460Z,4.23
2019-01-15T15:23:35.921Z,4.70
2019-01-15T15:26:18.210Z,5.70
2019-01-15T15:28:48.324Z,4.47
2019-01-15T15:31:18.335Z,4.60
2019-01-15T15:33:48.272Z,5.00
2019-01-15T15:36:34.495Z,4.43
2019-01-15T15:39:10.708Z,4.53
2019-01-15T15:41:56.913Z,4.37
2019-01-15T15:44:45.175Z,4.60
2019-01-15T15:47:21.108Z,4.37
2019-01-15T15:49:51.155Z,4.80
2019-01-15T15:52:23.607Z,4.17
2019-01-15T15:55:10.169Z,5.17
2019-01-15T15:57:46.161Z,4.57
2019-01-15T16:00:23.377Z,4.70
2019-01-15T16:02:56.061Z,5.27
2019-01-15T16:05:42.372Z,4.47
2019-01-15T16:08:21.223Z,4.30
2019-01-15T16:11:07.895Z,4.93
2019-01-15T16:13:54.263Z,4.87
2019-01-15T16:16:26.967Z,4.83
2019-01-15T16:19:13.243Z,4.87
2019-01-15T16:21:43.314Z,4.90
2019-01-15T16:24:16.275Z,4.83
2019-01-15T16:26:52.276Z,4.67
2019-01-15T16:29:22.307Z,4.07
2019-01-15T16:32:08.660Z,5.03
2019-01-15T16:34:41.379Z,3.80
2019-01-15T16:37:23.807Z,5.07
2019-01-15T16:40:10.215Z,4.47
2019-01-15T16:42:42.886Z,4.67
2019-01-15T16:45:22.036Z,4.97
2019-01-15T16:47:55.137Z,4.27
2019-01-15T16:50:28.106Z,4.37
2019-01-15T16:53:06.932Z,4.97
2019-01-15T16:55:51.865Z,4.53
2019-01-15T16:58:21.886Z,4.60
2019-01-15T17:00:54.520Z,5.07
2019-01-15T17:03:24.537Z,4.80
2019-01-15T17:06:11.069Z,4.90
2019-01-15T17:08:50.036Z,4.63
2019-01-15T17:11:36.629Z,5.10
2019-01-15T17:14:12.579Z,5.37
2019-01-15T17:16:42.554Z,4.67
2019-01-15T17:19:15.427Z,5.00
2019-01-15T17:21:45.456Z,5.20
2019-01-15T17:24:15.486Z,6.07
2019-01-15T17:26:54.934Z,5.10
2019-01-15T17:29:30.688Z,5.37
2019-01-15T17:32:19.144Z,5.97
2019-01-15T17:34:49.154Z,5.27
2019-01-15T17:37:19.128Z,5.83
2019-01-15T17:39:52.302Z,6.17
2019-01-15T17:42:22.378Z,5.53
2019-01-15T17:45:07.646Z,5.57
2019-01-15T17:47:43.899Z,5.37
2019-01-15T17:50:14.286Z,5.30
2019-01-15T17:53:00.436Z,5.90
2019-01-15T17:55:36.193Z,5.80
2019-01-15T17:58:06.260Z,6.60
2019-01-15T18:00:36.326Z,5.23
2019-01-15T18:03:06.343Z,5.40
2019-01-15T18:05:36.365Z,5.70
2019-01-15T18:08:18.465Z,6.03
2019-01-15T18:10:48.501Z,5.97
2019-01-15T18:13:34.896Z,5.87
2019-01-15T18:16:04.894Z,6.00
2019-01-15T18:18:51.125Z,7.00
2019-01-15T18:21:26.888Z,5.60
2019-01-15T18:26:58.768Z,6.20
2019-01-15T18:29:40.977Z,6.10
2019-01-15T18:32:10.991Z,6.20
2019-01-15T18:34:46.834Z,5.87
2019-01-15T18:37:19.510Z,5.30
2019-01-15T18:40:01.521Z,5.70
2019-01-15T18:42:34.242Z,5.80
2019-01-15T18:45:13.382Z,5.50
2019-01-15T18:47:52.071Z,5.93
2019-01-15T18:50:28.180Z,5.73
2019-01-15T18:52:58.158Z,5.50
2019-01-15T18:55:34.082Z,6.53
2019-01-15T18:58:06.800Z,5.83
2019-01-15T19:00:36.856Z,6.43
2019-01-15T19:03:24.851Z,5.53
2019-01-15T19:06:12.970Z,5.30
2019-01-15T19:08:45.977Z,5.70
2019-01-15T19:11:18.924Z,7.67
2019-01-15T19:13:52.168Z,5.43
2019-01-15T19:16:25.198Z,4.90
2019-01-15T19:19:11.188Z,6.37
2019-01-15T19:21:41.340Z,5.70
2019-01-15T19:24:17.271Z,5.87
2019-01-15T19:26:56.083Z,5.80
2019-01-15T19:29:26.203Z,6.50
2019-01-15T19:32:12.766Z,5.53
2019-01-15T19:34:58.823Z,5.03
2019-01-15T19:37:31.765Z,5.17
2019-01-15T19:40:10.396Z,5.77
2019-01-15T19:42:40.492Z,5.43
2019-01-15T19:45:15.963Z,6.03
2019-01-15T19:47:48.964Z,6.00
2019-01-15T19:50:35.461Z,6.80
2019-01-15T19:53:08.505Z,5.80
2019-01-15T19:55:38.534Z,5.63
2019-01-15T19:58:08.574Z,6.17
2019-01-15T20:00:38.613Z,5.47
2019-01-15T20:03:24.961Z,5.53
2019-01-15T20:05:54.976Z,5.73
2019-01-15T20:08:41.455Z,6.23
2019-01-15T20:11:27.872Z,6.47
2019-01-15T20:14:14.267Z,6.00
2019-01-15T20:16:50.209Z,6.37
2019-01-15T20:19:36.304Z,5.07
2019-01-15T20:22:12.261Z,6.23
2019-01-15T20:24:42.289Z,6.07
2019-01-15T20:27:28.626Z,5.60
2019-01-15T20:30:07.502Z,5.23
2019-01-15T20:32:43.530Z,6.00
2019-01-15T20:35:25.880Z,5.03
2019-01-15T20:37:56.208Z,6.17
2019-01-15T20:40:26.231Z,5.20
2019-01-15T20:42:56.253Z,5.23
2019-01-15T20:45:29.205Z,5.73
2019-01-15T20:48:15.231Z,5.77
2019-01-15T20:51:03.663Z,6.00
2019-01-15T20:53:35.160Z,5.00
2019-01-15T20:56:05.134Z,5.30
2019-01-15T20:58:35.244Z,5.60
2019-01-15T21:01:08.429Z,5.33
2019-01-15T21:03:54.982Z,5.70
2019-01-15T21:06:41.055Z,4.73
2019-01-15T21:09:11.102Z,4.43
2019-01-15T21:11:46.580Z,5.27
2019-01-15T21:14:19.608Z,4.80
2019-01-15T21:17:05.850Z,4.53
2019-01-15T21:19:48.205Z,4.33
2019-01-15T21:22:26.956Z,4.53
2019-01-15T21:24:56.936Z,5.10
2019-01-15T21:27:26.947Z,4.50
2019-01-15T21:30:03.111Z,5.40
2019-01-15T21:32:38.849Z,4.87
2019-01-15T21:35:20.731Z,3.97
2019-01-15T21:38:07.008Z,4.87
2019-01-15T21:40:37.129Z,4.20
2019-01-15T21:43:16.343Z,5.07
2019-01-15T21:45:46.487Z,4.50
2019-01-15T21:48:33.109Z,4.60
2019-01-15T21:51:09.280Z,5.10
2019-01-15T21:53:48.606Z,4.90
2019-01-15T21:56:24.693Z,4.10
2019-01-15T21:58:57.632Z,4.70
2019-01-15T22:01:27.695Z,4.50
2019-01-15T22:04:12.891Z,4.90
2019-01-15T22:06:43.240Z,4.80
2019-01-15T22:09:13.255Z,3.80
2019-01-15T22:11:58.151Z,4.33
2019-01-15T22:14:44.646Z,4.50
2019-01-15T22:17:23.693Z,4.67
2019-01-15T22:20:06.003Z,4.60
2019-01-15T22:22:52.409Z,4.03
2019-01-15T22:25:25.140Z,4.47
2019-01-15T22:28:11.631Z,5.07
2019-01-15T22:30:44.897Z,4.83
2019-01-15T22:33:29.898Z,4.93
2019-01-15T22:36:02.910Z,4.57
2019-01-15T22:38:42.059Z,4.00
2019-01-15T22:41:12.084Z,4.40
2019-01-15T22:43:42.090Z,4.00
2019-01-15T22:46:14.718Z,4.60
2019-01-15T22:48:44.744Z,4.23
2019-01-15T22:51:29.763Z,4.43
2019-01-15T22:53:59.796Z,4.50
2019-01-15T22:56:32.899Z,3.90
2019-01-15T22:59:19.653Z,3.47
2019-01-15T23:01:52.635Z,4.70
2019-01-15T23:04:28.456Z,4.53
2019-01-15T23:07:01.471Z,3.40
2019-01-15T23:09:31.526Z,3.67
2019-01-15T23:12:19.442Z,3.87
2019-01-15T23:14:58.058Z,3.57
2019-01-15T23:17:36.998Z,3.53
2019-01-15T23:20:09.855Z,4.10
2019-01-15T23:22:42.807Z,3.57
2019-01-15T23:25:28.231Z,4.30
2019-01-15T23:28:01.434Z,3.63
2019-01-15T23:30:31.469Z,3.83
2019-01-15T23:33:18.088Z,3.97
2019-01-15T23:35:48.142Z,3.57
2019-01-15T23:38:27.261Z,3.37
2019-01-15T23:41:03.213Z,4.47
2019-01-15T23:43:36.086Z,4.00
2019-01-15T23:46:22.299Z,4.43
2019-01-15T23:48:52.372Z,3.83
2019-01-15T23:51:34.654Z,3.70
2019-01-15T23:54:19.936Z,4.10
2019-01-15T23:56:52.694Z,3.93
2019-01-15T23:59:25.433Z,4.27
